Time;durP1;ratioP1;P1;durP2;ratioP2;P2;SDS_P1;SDS_P2;PMS_P1;PMS_P2;Temp;Humidity;BMP_temperature;BMP_pressure;BME280_temperature;BME280_humidity;BME280_pressure;Samples;Min_cycle;Max_cycle;Signal;HPM_P1;HPM_P2
2023/07/05 00:01:39;;;;;;;;;;;;;;;14.28;100.00;100473.72;5035330;28;19924;-70
2023/07/05 00:04:05;;;;;;;;;;;;;;;14.26;100.00;100468.47;5035563;28;19925;-71
2023/07/05 00:06:30;;;;;;;;;;;;;;;14.30;100.00;100458.22;5036524;28;19929;-71
2023/07/05 00:08:56;;;;;;;;;;;;;;;14.30;100.00;100455.53;5035886;28;19925;-70
2023/07/05 00:11:21;;;;;;;;;;;;;;;14.28;100.00;100450.25;5031162;28;20278;-71
2023/07/05 00:13:46;;;;;;;;;;;;;;;14.30;100.00;100447.41;5035718;28;19929;-71
2023/07/05 00:16:12;;;;;;;;;;;;;;;14.34;100.00;100433.44;5035658;28;19948;-71
2023/07/05 00:18:37;;;;;;;;;;;;;;;14.35;100.00;100443.25;5032703;28;20292;-71
2023/07/05 00:21:03;;;;;;;;;;;;;;;14.38;100.00;100426.72;5032755;28;19932;-71
2023/07/05 00:23:29;;;;;;;;;;;;;;;14.39;100.00;100409.53;5033427;28;20035;-71
2023/07/05 00:25:54;;;;;;;;;;;;;;;14.37;100.00;100405.25;5033067;28;19931;-71
2023/07/05 00:28:19;;;;;;;;;;;;;;;14.37;100.00;100391.75;5033884;28;20408;-71
2023/07/05 00:30:46;;;;;;;;;;;;;;;14.38;100.00;100372.72;5034011;28;20648;-71
2023/07/05 00:33:11;;;;;;;;;;;;;;;14.37;100.00;100371.03;5032060;28;20071;-70
2023/07/05 00:35:36;;;;;;;;;;;;;;;14.34;100.00;100359.66;5036861;28;19947;-71
2023/07/05 00:38:01;;;;;;;;;;;;;;;14.38;100.00;100363.75;5035560;28;19925;-71
2023/07/05 00:40:27;;;;;;;;;;;;;;;14.38;100.00;100359.22;5032097;28;19925;-71
2023/07/05 00:42:52;;;;;;;;;;;;;;;14.46;100.00;100344.06;5036513;28;19929;-69
2023/07/05 00:45:17;;;;;;;;;;;;;;;14.41;100.00;100339.13;5035288;28;19924;-71
2023/07/05 00:47:42;;;;;;;;;;;;;;;14.40;100.00;100324.81;5034629;28;20305;-71
2023/07/05 00:50:24;;;;;;;;;;;;;;;14.44;100.00;100316.34;5033126;28;19924;-72
2023/07/05 00:52:49;;;;;;;;;;;;;;;14.48;100.00;100317.75;5035271;28;19938;-71
2023/07/05 00:55:14;;;;;;;;;;;;;;;14.53;100.00;100302.78;5034086;28;19967;-71
2023/07/05 00:57:40;;;;;;;;;;;;;;;14.48;100.00;100291.59;5035222;28;19932;-69
2023/07/05 01:00:12;;;;;;;;;;;;;;;14.50;100.00;100277.91;5030708;28;19971;-71
2023/07/05 01:02:39;;;;;;;;;;;;;;;14.49;100.00;100281.63;5034048;28;19924;-71
2023/07/05 01:05:05;;;;;;;;;;;;;;;14.52;100.00;100284.88;5034764;28;20419;-73
2023/07/05 01:07:30;;;;;;;;;;;;;;;14.53;100.00;100277.59;5034021;28;19928;-71
2023/07/05 01:09:56;;;;;;;;;;;;;;;14.50;100.00;100286.03;5036216;28;20342;-72
2023/07/05 01:12:24;;;;;;;;;;;;;;;14.50;100.00;100280.63;5027491;28;20287;-71
2023/07/05 01:15:04;;;;;;;;;;;;;;;14.52;100.00;100260.56;5025018;28;19925;-71
2023/07/05 01:17:35;;;;;;;;;;;;;;;14.50;100.00;100265.28;5030283;28;19924;-71
2023/07/05 01:20:04;;;;;;;;;;;;;;;14.48;100.00;100259.19;5028785;28;19936;-70
2023/07/05 01:22:51;;;;;;;;;;;;;;;14.51;100.00;100266.09;5036402;28;19925;-73
2023/07/05 01:25:31;;;;;;;;;;;;;;;14.50;100.00;100256.31;5031389;28;19925;-71
2023/07/05 01:28:01;;;;;;;;;;;;;;;14.63;100.00;100256.75;5031271;28;19987;-70
2023/07/05 01:30:45;;;;;;;;;;;;;;;14.54;100.00;100265.78;5026506;28;19924;-71
2023/07/05 01:33:13;;;;;;;;;;;;;;;14.55;100.00;100271.06;5028717;28;19929;-70
2023/07/05 01:35:44;;;;;;;;;;;;;;;14.63;100.00;100255.88;5030893;28;20259;-74
2023/07/05 01:38:09;;;;;;;;;;;;;;;14.70;100.00;100238.88;5030088;28;19921;-71
2023/07/05 01:40:34;;;;;;;;;;;;;;;14.76;100.00;100244.66;5028186;28;19932;-71
2023/07/05 01:43:01;;;;;;;;;;;;;;;14.74;100.00;100246.69;5027915;28;20360;-71
2023/07/05 01:45:45;;;;;;;;;;;;;;;14.75;100.00;100243.84;5024208;28;20492;-71
2023/07/05 01:48:16;;;;;;;;;;;;;;;14.86;100.00;100240.00;5034615;28;19932;-72
2023/07/05 01:50:43;;;;;;;;;;;;;;;14.87;100.00;100252.50;5032510;28;20379;-73
2023/07/05 01:53:09;;;;;;;;;;;;;;;14.96;100.00;100243.38;5027027;28;19967;-71
2023/07/05 01:55:36;;;;;;;;;;;;;;;14.97;100.00;100234.28;5029482;28;20015;-71
2023/07/05 01:58:03;;;;;;;;;;;;;;;15.03;100.00;100245.44;5034678;28;19920;-71
2023/07/05 02:00:28;;;;;;;;;;;;;;;15.05;100.00;100249.69;5033660;28;19925;-71
2023/07/05 02:03:01;;;;;;;;;;;;;;;15.12;100.00;100249.88;5033196;28;20315;-75
2023/07/05 02:05:28;;;;;;;;;;;;;;;15.02;100.00;100241.91;5022600;28;19928;-71
2023/07/05 02:07:53;;;;;;;;;;;;;;;15.04;100.00;100234.50;5031168;28;19947;-69
2023/07/05 02:10:19;;;;;;;;;;;;;;;15.05;100.00;100235.31;5028286;28;20386;-75
2023/07/05 02:12:44;;;;;;;;;;;;;;;14.93;100.00;100243.75;5026743;28;20019;-73
2023/07/05 02:15:09;;;;;;;;;;;;;;;14.93;100.00;100245.59;5027807;28;20380;-67
2023/07/05 02:17:35;;;;;;;;;;;;;;;14.95;100.00;100255.25;5026738;28;20056;-71
2023/07/05 02:20:00;;;;;;;;;;;;;;;14.97;100.00;100258.59;5026620;28;20493;-69
2023/07/05 02:22:25;;;;;;;;;;;;;;;14.89;100.00;100264.00;5024395;28;19929;-69
2023/07/05 02:24:51;;;;;;;;;;;;;;;14.84;100.00;100269.88;5028224;28;20031;-69
2023/07/05 02:27:16;;;;;;;;;;;;;;;14.87;100.00;100267.84;5027721;28;19920;-68
2023/07/05 02:29:42;;;;;;;;;;;;;;;14.83;100.00;100273.56;5013141;28;19925;-68
2023/07/05 02:32:07;;;;;;;;;;;;;;;14.81;100.00;100281.03;5032725;28;19947;-68
2023/07/05 02:34:33;;;;;;;;;;;;;;;14.81;100.00;100299.06;5035354;28;19924;-71
2023/07/05 02:36:58;;;;;;;;;;;;;;;14.76;100.00;100291.47;5034583;28;20451;-70
2023/07/05 02:39:23;;;;;;;;;;;;;;;14.68;100.00;100302.19;5026203;28;19925;-67
2023/07/05 02:41:48;;;;;;;;;;;;;;;14.58;100.00;100301.44;5032296;28;19925;-70
2023/07/05 02:44:14;;;;;;;;;;;;;;;14.57;100.00;100314.09;5027445;28;19952;-69
2023/07/05 02:46:39;;;;;;;;;;;;;;;14.45;100.00;100312.66;5033306;28;20015;-68
2023/07/05 02:49:04;;;;;;;;;;;;;;;14.35;100.00;100316.31;5019088;28;19925;-72
2023/07/05 02:51:32;;;;;;;;;;;;;;;14.06;100.00;100324.66;5034307;28;20458;-69
2023/07/05 02:53:57;;;;;;;;;;;;;;;13.79;100.00;100339.94;5028144;28;19921;-70
2023/07/05 02:56:22;;;;;;;;;;;;;;;13.67;100.00;100338.47;5025733;28;19928;-68
2023/07/05 02:58:47;;;;;;;;;;;;;;;13.50;100.00;100339.13;5021806;28;19956;-69
2023/07/05 03:01:12;;;;;;;;;;;;;;;13.39;100.00;100333.91;5034933;28;20395;-69
2023/07/05 03:03:38;;;;;;;;;;;;;;;13.31;100.00;100342.75;5013672;28;20404;-69
2023/07/05 03:06:03;;;;;;;;;;;;;;;13.31;100.00;100342.75;5031000;28;20371;-70
2023/07/05 03:08:28;;;;;;;;;;;;;;;13.24;100.00;100333.56;5029351;28;20037;-69
2023/07/05 03:10:54;;;;;;;;;;;;;;;13.19;100.00;100335.88;5036043;28;19928;-69
2023/07/05 03:13:20;;;;;;;;;;;;;;;13.05;100.00;100347.97;5029613;28;20363;-70
2023/07/05 03:15:45;;;;;;;;;;;;;;;12.97;100.00;100343.34;5023474;28;19982;-72
2023/07/05 03:18:10;;;;;;;;;;;;;;;12.89;100.00;100335.97;5026682;28;20369;-70
2023/07/05 03:20:37;;;;;;;;;;;;;;;12.86;100.00;100343.50;5034862;28;20356;-71
2023/07/05 03:23:02;;;;;;;;;;;;;;;12.88;100.00;100331.56;5035743;28;19931;-70
2023/07/05 03:25:28;;;;;;;;;;;;;;;12.73;100.00;100331.19;5026903;28;19929;-71
2023/07/05 03:27:53;;;;;;;;;;;;;;;12.86;100.00;100344.34;5023985;28;19925;-70
2023/07/05 03:30:18;;;;;;;;;;;;;;;12.72;100.00;100347.50;5032554;28;20356;-72
2023/07/05 03:32:44;;;;;;;;;;;;;;;12.64;100.00;100336.59;5032888;28;19935;-69
2023/07/05 03:35:09;;;;;;;;;;;;;;;12.64;100.00;100350.06;5026301;28;20344;-71
2023/07/05 03:37:34;;;;;;;;;;;;;;;12.65;100.00;100354.47;5022104;28;19921;-69
2023/07/05 03:40:00;;;;;;;;;;;;;;;12.71;100.00;100359.28;5032216;28;20473;-72
2023/07/05 03:42:25;;;;;;;;;;;;;;;12.69;100.00;100364.81;5033827;28;20426;-69
2023/07/05 03:44:50;;;;;;;;;;;;;;;12.76;100.00;100375.84;5028582;28;20356;-69
2023/07/05 03:47:15;;;;;;;;;;;;;;;12.82;100.00;100369.03;5032464;28;20200;-69
2023/07/05 03:49:40;;;;;;;;;;;;;;;12.87;100.00;100362.19;5032540;28;19933;-69
2023/07/05 03:52:06;;;;;;;;;;;;;;;12.82;100.00;100375.28;5033636;28;19936;-70
2023/07/05 03:54:31;;;;;;;;;;;;;;;12.90;100.00;100361.91;5029931;28;20286;-67
2023/07/05 03:56:56;;;;;;;;;;;;;;;12.94;100.00;100353.53;5030482;28;19963;-68
2023/07/05 03:59:21;;;;;;;;;;;;;;;12.96;100.00;100352.41;5036466;28;19916;-72
2023/07/05 04:01:47;;;;;;;;;;;;;;;12.90;100.00;100355.69;5033600;28;20291;-69
2023/07/05 04:04:12;;;;;;;;;;;;;;;12.98;100.00;100358.47;5031684;28;20337;-69
2023/07/05 04:06:37;;;;;;;;;;;;;;;12.97;100.00;100348.72;5029627;28;19921;-71
2023/07/05 04:09:03;;;;;;;;;;;;;;;12.79;100.00;100337.84;5031900;28;19968;-70
2023/07/05 04:11:29;;;;;;;;;;;;;;;12.93;100.00;100349.16;5028950;28;20735;-69
2023/07/05 04:13:55;;;;;;;;;;;;;;;12.87;100.00;100353.28;5029504;28;19967;-72
2023/07/05 04:16:21;;;;;;;;;;;;;;;12.88;100.00;100344.19;5029740;28;20015;-71
2023/07/05 04:18:46;;;;;;;;;;;;;;;12.79;100.00;100345.06;5030937;28;19963;-70
2023/07/05 04:21:12;;;;;;;;;;;;;;;12.86;100.00;100343.50;5033212;28;20543;-70
2023/07/05 04:23:38;;;;;;;;;;;;;;;12.93;100.00;100344.63;5033946;28;19931;-71
2023/07/05 04:26:07;;;;;;;;;;;;;;;12.95;100.00;100364.19;5031631;28;19948;-69
2023/07/05 04:28:33;;;;;;;;;;;;;;;13.01;100.00;100349.28;5030269;28;19929;-69
2023/07/05 04:30:58;;;;;;;;;;;;;;;13.11;100.00;100346.53;5030809;28;19924;-69
2023/07/05 04:33:23;;;;;;;;;;;;;;;13.10;100.00;100356.47;5031618;28;20297;-70
2023/07/05 04:35:49;;;;;;;;;;;;;;;13.09;100.00;100356.59;5029874;28;20046;-72
2023/07/05 04:38:14;;;;;;;;;;;;;;;13.12;100.00;100357.16;5032290;28;19967;-70
2023/07/05 04:40:40;;;;;;;;;;;;;;;13.10;100.00;100351.09;5033113;28;20413;-72
2023/07/05 04:43:05;;;;;;;;;;;;;;;13.14;100.00;100355.16;5033667;28;20037;-71
2023/07/05 04:45:30;;;;;;;;;;;;;;;13.22;100.00;100359.84;5035047;28;19936;-71
2023/07/05 04:47:55;;;;;;;;;;;;;;;13.18;100.00;100356.56;5035659;28;19978;-71
2023/07/05 04:50:20;;;;;;;;;;;;;;;13.23;100.00;100361.53;5036130;28;20055;-73
2023/07/05 04:52:46;;;;;;;;;;;;;;;13.36;100.00;100382.75;5033591;28;19921;-69
2023/07/05 04:55:11;;;;;;;;;;;;;;;13.38;100.00;100361.84;5030440;28;19931;-66
2023/07/05 04:57:36;;;;;;;;;;;;;;;13.35;100.00;100349.53;5036258;28;19925;-72
2023/07/05 05:00:05;;;;;;;;;;;;;;;13.33;100.00;100327.25;5039692;28;19920;-70
2023/07/05 05:02:31;;;;;;;;;;;;;;;13.32;100.00;100349.00;5017937;28;19988;-69
2023/07/05 05:04:56;;;;;;;;;;;;;;;13.35;100.00;100349.53;5035604;28;20417;-70
2023/07/05 05:07:21;;;;;;;;;;;;;;;13.41;100.00;100336.50;5027025;28;19931;-69
2023/07/05 05:09:46;;;;;;;;;;;;;;;13.44;100.00;100325.41;5036330;28;19967;-69
2023/07/05 05:12:12;;;;;;;;;;;;;;;13.41;100.00;100328.41;5040599;28;19940;-69
2023/07/05 05:14:37;;;;;;;;;;;;;;;13.44;100.00;100322.72;5035769;28;19967;-70
2023/07/05 05:17:02;;;;;;;;;;;;;;;13.45;100.00;100338.72;5041930;28;20007;-69
2023/07/05 05:19:27;;;;;;;;;;;;;;;13.45;100.00;100325.25;5036476;28;19924;-70
2023/07/05 05:21:53;;;;;;;;;;;;;;;13.57;100.00;100335.84;5038734;28;20022;-68
2023/07/05 05:24:18;;;;;;;;;;;;;;;13.62;100.00;100338.94;5031366;28;20015;-71
2023/07/05 05:26:43;;;;;;;;;;;;;;;13.61;100.00;100342.63;5030629;28;19921;-72
2023/07/05 05:29:08;;;;;;;;;;;;;;;13.61;100.00;100337.22;5033848;28;19925;-70
2023/07/05 05:31:33;;;;;;;;;;;;;;;13.78;100.00;100354.41;5036958;28;19931;-69
2023/07/05 05:33:59;;;;;;;;;;;;;;;13.77;100.00;100344.66;5034489;28;19925;-69
2023/07/05 05:36:24;;;;;;;;;;;;;;;13.77;100.00;100336.56;5026391;28;19921;-71
2023/07/05 05:38:49;;;;;;;;;;;;;;;13.73;100.00;100345.97;5034295;28;19925;-70
2023/07/05 05:41:14;;;;;;;;;;;;;;;13.72;100.00;100344.25;5036689;28;19936;-69
2023/07/05 05:43:40;;;;;;;;;;;;;;;13.57;100.00;100343.94;5033170;28;20159;-69
2023/07/05 05:46:05;;;;;;;;;;;;;;;13.59;100.00;100348.16;5037058;28;19972;-68
2023/07/05 05:48:30;;;;;;;;;;;;;;;13.52;100.00;100355.16;5038476;28;20414;-71
2023/07/05 05:50:55;;;;;;;;;;;;;;;13.57;100.00;100333.97;5036945;28;20571;-67
2023/07/05 05:53:20;;;;;;;;;;;;;;;13.63;100.00;100354.94;5035980;28;19928;-69
2023/07/05 05:55:46;;;;;;;;;;;;;;;13.56;100.00;100353.84;5037535;28;19924;-69
2023/07/05 05:58:11;;;;;;;;;;;;;;;13.43;100.00;100351.50;5037975;28;19920;-72
2023/07/05 06:00:37;;;;;;;;;;;;;;;13.14;100.00;100373.19;5034331;28;19924;-68
2023/07/05 06:03:03;;;;;;;;;;;;;;;13.00;100.00;100367.25;5034490;28;19967;-72
2023/07/05 06:05:28;;;;;;;;;;;;;;;12.87;100.00;100348.72;5035077;28;20654;-72
2023/07/05 06:07:53;;;;;;;;;;;;;;;12.91;100.00;100360.09;5034678;28;19950;-69
2023/07/05 06:10:19;;;;;;;;;;;;;;;12.99;100.00;100372.81;5034140;28;19931;-71
2023/07/05 06:12:44;;;;;;;;;;;;;;;13.01;100.00;100373.53;5036945;28;20085;-73
2023/07/05 06:15:10;;;;;;;;;;;;;;;13.11;100.00;100397.75;5033226;28;19931;-70
2023/07/05 06:17:35;;;;;;;;;;;;;;;12.80;100.00;100377.28;5034898;28;20167;-68
2023/07/05 06:20:00;;;;;;;;;;;;;;;12.45;100.00;100403.81;5036330;28;19928;-72
2023/07/05 06:22:26;;;;;;;;;;;;;;;12.40;100.00;100389.06;5035129;28;19928;-71
2023/07/05 06:24:51;;;;;;;;;;;;;;;12.28;100.00;100405.38;5031497;28;20275;-69
2023/07/05 06:27:17;;;;;;;;;;;;;;;12.27;100.00;100398.31;5033776;28;20387;-69
2023/07/05 06:29:42;;;;;;;;;;;;;;;12.28;100.00;100378.47;5031658;28;20375;-71
2023/07/05 06:32:07;;;;;;;;;;;;;;;12.29;100.00;100395.47;5033687;28;20011;-70
2023/07/05 06:34:32;;;;;;;;;;;;;;;12.34;100.00;100400.41;5033978;28;19932;-69
2023/07/05 06:36:57;;;;;;;;;;;;;;;12.45;100.00;100401.09;5026750;28;19948;-71
2023/07/05 06:39:23;;;;;;;;;;;;;;;12.53;100.00;100402.25;5027284;28;19925;-70
2023/07/05 06:41:48;;;;;;;;;;;;;;;12.72;100.00;100406.75;5026503;28;20466;-70
2023/07/05 06:44:13;;;;;;;;;;;;;;;12.95;100.00;100399.22;5031500;28;20315;-72
2023/07/05 06:46:38;;;;;;;;;;;;;;;13.30;100.00;100413.84;5033475;28;20383;-71
2023/07/05 06:49:03;;;;;;;;;;;;;;;13.44;100.00;100417.09;5033436;28;20362;-70
2023/07/05 06:51:29;;;;;;;;;;;;;;;13.42;100.00;100397.50;5032953;28;20011;-71
2023/07/05 06:53:55;;;;;;;;;;;;;;;13.49;100.00;100399.47;5030057;28;21324;-68
2023/07/05 06:56:20;;;;;;;;;;;;;;;13.57;100.00;100428.38;5030742;28;19925;-67
2023/07/05 06:58:46;;;;;;;;;;;;;;;13.61;100.00;100408.19;5033524;28;20015;-72
2023/07/05 07:01:11;;;;;;;;;;;;;;;13.62;100.00;100419.84;5031874;28;19924;-70
2023/07/05 07:03:36;;;;;;;;;;;;;;;13.60;100.00;100414.59;5030093;28;20033;-72
2023/07/05 07:06:04;;;;;;;;;;;;;;;13.59;100.00;100414.75;5031743;28;20345;-71
2023/07/05 07:08:30;;;;;;;;;;;;;;;13.74;100.00;100404.31;5032031;28;20343;-72
2023/07/05 07:10:58;;;;;;;;;;;;;;;13.85;100.00;100411.34;5034068;28;19921;-70
2023/07/05 07:13:25;;;;;;;;;;;;;;;13.79;100.00;100407.38;5034223;28;19924;-75
2023/07/05 07:15:57;;;;;;;;;;;;;;;13.85;100.00;100419.44;5035741;28;19925;-72
2023/07/05 07:18:24;;;;;;;;;;;;;;;13.84;100.00;100423.97;5031642;28;20007;-72
2023/07/05 07:20:55;;;;;;;;;;;;;;;13.95;100.00;100434.56;5035570;28;20027;-71
2023/07/05 07:23:21;;;;;;;;;;;;;;;13.97;100.00;100450.59;5030883;28;19967;-72
2023/07/05 07:25:46;;;;;;;;;;;;;;;14.08;100.00;100434.19;5029338;28;20016;-69
2023/07/05 07:28:11;;;;;;;;;;;;;;;14.16;100.00;100451.50;5037235;28;20423;-70
2023/07/05 07:30:36;;;;;;;;;;;;;;;14.28;100.00;100446.72;5034013;28;20442;-72
2023/07/05 07:33:02;;;;;;;;;;;;;;;14.23;100.00;100452.56;5036988;28;20607;-72
2023/07/05 07:35:27;;;;;;;;;;;;;;;14.22;100.00;100453.56;5034328;28;20104;-72
2023/07/05 07:37:52;;;;;;;;;;;;;;;14.25;100.00;100485.66;5034984;28;20415;-71
2023/07/05 07:40:17;;;;;;;;;;;;;;;14.13;100.00;100487.72;5035763;28;20333;-71
2023/07/05 07:42:43;;;;;;;;;;;;;;;14.03;100.00;100481.56;5027352;28;20447;-71
2023/07/05 07:45:08;;;;;;;;;;;;;;;13.94;100.00;100478.75;5028069;28;20464;-69
2023/07/05 07:47:33;;;;;;;;;;;;;;;13.94;100.00;100491.38;5033926;28;20737;-70
2023/07/05 07:49:58;;;;;;;;;;;;;;;13.89;100.00;100486.44;5035719;28;19925;-72
2023/07/05 07:52:24;;;;;;;;;;;;;;;14.04;100.00;100496.72;5036442;28;19932;-72
2023/07/05 07:54:49;;;;;;;;;;;;;;;14.03;100.00;100492.34;5034237;28;19974;-72
2023/07/05 07:57:14;;;;;;;;;;;;;;;14.03;100.00;100508.53;5033913;28;20063;-70
2023/07/05 07:59:41;;;;;;;;;;;;;;;13.91;100.00;100529.44;5037555;28;19928;-71
2023/07/05 08:02:10;;;;;;;;;;;;;;;13.88;100.00;100522.53;5027205;28;20366;-75
2023/07/05 08:04:38;;;;;;;;;;;;;;;13.71;100.00;100510.66;5033796;28;19932;-70
2023/07/05 08:07:03;;;;;;;;;;;;;;;13.70;100.00;100527.00;5031328;28;20363;-74
2023/07/05 08:09:29;;;;;;;;;;;;;;;13.53;100.00;100509.75;5029282;28;19932;-70
2023/07/05 08:11:57;;;;;;;;;;;;;;;13.46;100.00;100518.41;5034040;28;20382;-74
2023/07/05 08:14:22;;;;;;;;;;;;;;;13.37;100.00;100537.28;5026650;28;20173;-75
2023/07/05 08:16:47;;;;;;;;;;;;;;;13.44;100.00;100544.66;5035712;28;19928;-71
2023/07/05 08:19:14;;;;;;;;;;;;;;;13.55;100.00;100535.56;5035847;28;19925;-70
2023/07/05 08:21:41;;;;;;;;;;;;;;;13.65;100.00;100549.88;5034085;28;19925;-74
2023/07/05 08:24:07;;;;;;;;;;;;;;;13.90;100.00;100571.81;5028147;28;19921;-73
2023/07/05 08:26:32;;;;;;;;;;;;;;;13.92;100.00;100550.03;5034853;28;19925;-72
2023/07/05 08:28:57;;;;;;;;;;;;;;;13.63;100.00;100561.81;5032203;28;19967;-73
2023/07/05 08:31:23;;;;;;;;;;;;;;;13.59;100.00;100561.25;5036821;28;19931;-73
2023/07/05 08:33:48;;;;;;;;;;;;;;;13.79;100.00;100563.88;5037009;28;20032;-73
2023/07/05 08:36:13;;;;;;;;;;;;;;;13.99;100.00;100569.22;5033873;28;19929;-73
2023/07/05 08:38:39;;;;;;;;;;;;;;;14.26;100.00;100573.75;5040377;28;19916;-74
2023/07/05 08:41:13;;;;;;;;;;;;;;;14.17;100.00;100570.13;5036204;28;20022;-70
2023/07/05 08:43:43;;;;;;;;;;;;;;;14.16;100.00;100587.31;5035925;28;19924;-73
2023/07/05 08:46:10;;;;;;;;;;;;;;;13.67;100.00;100584.78;5037275;28;19925;-71
2023/07/05 08:48:35;;;;;;;;;;;;;;;13.29;100.00;100579.28;5036155;28;19929;-73
2023/07/05 08:51:01;;;;;;;;;;;;;;;13.26;100.00;100576.03;5037956;28;19928;-72
2023/07/05 08:53:26;;;;;;;;;;;;;;;13.24;100.00;100608.56;5036142;28;20042;-71
2023/07/05 08:55:52;;;;;;;;;;;;;;;13.22;100.00;100594.38;5038628;28;19928;-73
2023/07/05 08:58:22;;;;;;;;;;;;;;;13.44;100.00;100604.00;5037388;28;20031;-73
2023/07/05 09:00:57;;;;;;;;;;;;;;;13.59;100.00;100615.19;5030627;28;19999;-74
2023/07/05 09:03:23;;;;;;;;;;;;;;;13.53;100.00;100615.75;5027850;28;19921;-71
2023/07/05 09:05:50;;;;;;;;;;;;;;;13.54;100.00;100630.94;5031489;28;19935;-72
2023/07/05 09:08:18;;;;;;;;;;;;;;;13.69;100.00;100628.66;5036313;28;19929;-71
2023/07/05 09:10:46;;;;;;;;;;;;;;;13.82;100.00;100633.75;5036710;28;19931;-73
2023/07/05 09:13:16;;;;;;;;;;;;;;;13.95;100.00;100631.59;5035117;28;20023;-71
2023/07/05 09:15:43;;;;;;;;;;;;;;;14.31;100.00;100633.59;5034751;28;19947;-73
2023/07/05 09:18:27;;;;;;;;;;;;;;;14.69;100.00;100642.53;5035927;28;19924;-73
2023/07/05 09:20:59;;;;;;;;;;;;;;;15.11;100.00;100635.66;5038504;28;20449;-72
2023/07/05 09:23:27;;;;;;;;;;;;;;;15.73;100.00;100631.28;5030514;28;19925;-73
2023/07/05 09:25:54;;;;;;;;;;;;;;;16.23;100.00;100629.72;5033489;28;19925;-74
2023/07/05 09:28:28;;;;;;;;;;;;;;;16.42;100.00;100644.91;5035372;28;19946;-72
2023/07/05 09:30:53;;;;;;;;;;;;;;;16.66;100.00;100658.72;5033409;28;20386;-70
2023/07/05 09:33:38;;;;;;;;;;;;;;;16.64;100.00;100662.44;5033995;28;19926;-73
2023/07/05 09:36:04;;;;;;;;;;;;;;;15.89;100.00;100671.19;5034638;28;19971;-73
2023/07/05 09:38:31;;;;;;;;;;;;;;;15.58;100.00;100685.13;5037255;28;19924;-72
2023/07/05 09:41:06;;;;;;;;;;;;;;;15.08;100.00;100676.56;5033941;28;19932;-72
2023/07/05 09:43:32;;;;;;;;;;;;;;;15.05;100.00;100684.09;5033221;28;19920;-71
2023/07/05 09:45:58;;;;;;;;;;;;;;;15.30;100.00;100704.16;5033021;28;20062;-73
2023/07/05 09:48:24;;;;;;;;;;;;;;;15.78;100.00;100685.78;5037559;28;19936;-70
2023/07/05 09:50:50;;;;;;;;;;;;;;;16.19;100.00;100688.81;5037814;28;19924;-75
2023/07/05 09:53:34;;;;;;;;;;;;;;;16.54;100.00;100698.81;5032924;28;20012;-74
2023/07/05 09:56:06;;;;;;;;;;;;;;;16.58;100.00;100708.28;5032327;28;19928;-72
2023/07/05 09:58:32;;;;;;;;;;;;;;;16.66;100.00;100716.47;5036504;28;20470;-72
2023/07/05 10:00:58;;;;;;;;;;;;;;;16.74;100.00;100719.22;5027338;28;19924;-73
2023/07/05 10:03:23;;;;;;;;;;;;;;;16.97;100.00;100717.78;5033546;28;20304;-73
2023/07/05 10:05:52;;;;;;;;;;;;;;;17.02;100.00;100731.72;5031756;28;20463;-74
2023/07/05 10:08:18;;;;;;;;;;;;;;;17.34;100.00;100749.97;5028153;28;19921;-72
2023/07/05 10:10:43;;;;;;;;;;;;;;;17.37;100.00;100743.34;5030906;28;19925;-75
2023/07/05 10:13:23;;;;;;;;;;;;;;;17.69;100.00;100747.97;5035754;28;19951;-72
2023/07/05 10:15:49;;;;;;;;;;;;;;;18.01;100.00;100744.59;5026654;28;20383;-70
2023/07/05 10:18:27;;;;;;;;;;;;;;;18.18;100.00;100732.69;5033615;28;20032;-74
2023/07/05 10:20:52;;;;;;;;;;;;;;;18.46;100.00;100726.84;5032460;28;19928;-72
2023/07/05 10:23:18;;;;;;;;;;;;;;;18.51;96.15;100751.66;5030691;28;21739;-72
2023/07/05 10:25:43;;;;;;;;;;;;;;;18.36;90.88;100739.81;5034715;28;20370;-71
2023/07/05 10:28:12;;;;;;;;;;;;;;;18.42;98.25;100739.94;5035159;28;19972;-72
2023/07/05 10:30:49;;;;;;;;;;;;;;;18.37;89.72;100753.22;5036092;28;20314;-74
2023/07/05 10:33:15;;;;;;;;;;;;;;;18.64;81.83;100786.44;5031348;28;19990;-72
2023/07/05 10:35:45;;;;;;;;;;;;;;;18.67;78.16;100768.97;5036538;28;20299;-71
2023/07/05 10:38:24;;;;;;;;;;;;;;;18.55;77.16;100784.75;5034129;28;19935;-72
2023/07/05 10:40:49;;;;;;;;;;;;;;;18.31;80.61;100786.50;5036154;28;19925;-73
2023/07/05 10:43:15;;;;;;;;;;;;;;;18.71;77.80;100787.47;5029819;28;19955;-72
2023/07/05 10:45:40;;;;;;;;;;;;;;;18.65;74.30;100777.28;5028734;28;20365;-71
2023/07/05 10:48:07;;;;;;;;;;;;;;;18.26;74.02;100810.66;5035429;28;19962;-72
2023/07/05 10:50:32;;;;;;;;;;;;;;;18.62;74.70;100795.81;5023217;28;20059;-75
2023/07/05 10:52:59;;;;;;;;;;;;;;;18.37;75.09;100804.00;5033947;28;19924;-72
2023/07/05 10:55:30;;;;;;;;;;;;;;;18.79;76.57;100811.06;5030450;28;19925;-73
2023/07/05 10:58:00;;;;;;;;;;;;;;;18.94;73.48;100796.72;5035810;28;19924;-71
2023/07/05 11:00:28;;;;;;;;;;;;;;;19.04;72.40;100802.84;5029031;28;20355;-72
2023/07/05 11:03:14;;;;;;;;;;;;;;;19.40;68.92;100815.94;5021464;28;19925;-74
2023/07/05 11:05:44;;;;;;;;;;;;;;;19.61;65.39;100819.91;5033741;28;19925;-73
2023/07/05 11:08:16;;;;;;;;;;;;;;;19.54;69.39;100824.34;5035787;28;20440;-73
2023/07/05 11:10:41;;;;;;;;;;;;;;;19.06;66.22;100843.50;5035922;28;19925;-72
2023/07/05 11:13:11;;;;;;;;;;;;;;;18.67;68.62;100835.03;5032991;28;20403;-74
2023/07/05 11:15:36;;;;;;;;;;;;;;;18.34;71.69;100845.13;5034809;28;19968;-72
2023/07/05 11:18:01;;;;;;;;;;;;;;;17.98;74.87;100849.84;5034699;28;20422;-74
2023/07/05 11:20:39;;;;;;;;;;;;;;;17.87;77.31;100869.19;5031249;28;19941;-75
2023/07/05 11:23:05;;;;;;;;;;;;;;;18.89;73.37;100860.69;5034383;28;20283;-72
2023/07/05 11:25:49;;;;;;;;;;;;;;;18.63;72.98;100873.66;5028696;28;19932;-71
2023/07/05 11:28:34;;;;;;;;;;;;;;;18.16;74.43;100883.31;5035183;28;19928;-75
2023/07/05 11:31:00;;;;;;;;;;;;;;;17.99;77.95;100886.03;5023643;28;19931;-71
2023/07/05 11:33:25;;;;;;;;;;;;;;;18.29;82.10;100886.38;5035103;28;19933;-71
2023/07/05 11:35:51;;;;;;;;;;;;;;;19.13;77.18;100885.28;5037790;28;19931;-70
2023/07/05 11:38:35;;;;;;;;;;;;;;;19.89;69.14;100887.53;5034784;28;19978;-72
2023/07/05 11:41:00;;;;;;;;;;;;;;;20.61;68.46;100872.63;5033032;28;20882;-73
2023/07/05 11:43:26;;;;;;;;;;;;;;;20.58;62.65;100893.97;5033530;28;19925;-73
2023/07/05 11:45:52;;;;;;;;;;;;;;;20.26;65.51;100898.66;5030184;28;20362;-73
2023/07/05 11:48:36;;;;;;;;;;;;;;;20.11;65.37;100912.22;5030389;28;19932;-73
2023/07/05 11:51:01;;;;;;;;;;;;;;;20.93;64.98;100899.78;5040328;28;20023;-73
2023/07/05 11:53:26;;;;;;;;;;;;;;;20.98;62.31;100895.50;5037410;28;19928;-74
2023/07/05 11:55:51;;;;;;;;;;;;;;;21.38;58.67;100902.53;5036549;28;20474;-72
2023/07/05 11:58:18;;;;;;;;;;;;;;;21.69;56.30;100898.75;5022084;28;20535;-71
2023/07/05 12:00:43;;;;;;;;;;;;;;;22.22;57.20;100912.16;5037126;28;19925;-75
2023/07/05 12:03:48;;;;;;;;;;;;;;;22.27;56.80;100919.78;5038753;28;19937;-70
2023/07/05 12:06:18;;;;;;;;;;;;;;;21.09;58.21;100916.00;4976022;28;19977;-75
2023/07/05 12:08:48;;;;;;;;;;;;;;;20.48;60.28;100927.78;4958579;28;19932;-73
2023/07/05 12:11:16;;;;;;;;;;;;;;;20.78;64.00;100933.38;4981019;28;19991;-73
2023/07/05 12:13:42;;;;;;;;;;;;;;;20.88;55.94;100952.19;5036427;28;20389;-73
2023/07/05 12:16:10;;;;;;;;;;;;;;;20.94;55.65;100936.97;5038446;28;19925;-71
2023/07/05 12:18:35;;;;;;;;;;;;;;;21.43;52.98;100931.00;5037352;28;19920;-71
2023/07/05 12:21:02;;;;;;;;;;;;;;;20.73;56.43;100935.78;5023566;28;19925;-74
2023/07/05 12:23:28;;;;;;;;;;;;;;;19.89;56.13;100939.28;5020806;28;19917;-74
2023/07/05 12:25:55;;;;;;;;;;;;;;;20.34;56.21;100947.69;5037142;28;19921;-74
2023/07/05 12:28:22;;;;;;;;;;;;;;;20.08;55.91;100946.16;5038338;28;20042;-77